createdAt,value
2022-10-11T00:01:40.251Z,2.78
2022-10-11T00:04:06.822Z,2.80
2022-10-11T00:06:33.413Z,3.00
2022-10-11T00:08:59.928Z,2.47
2022-10-11T00:11:26.386Z,2.83
2022-10-11T00:13:52.852Z,2.53
2022-10-11T00:16:19.272Z,2.75
2022-10-11T00:18:45.922Z,2.83
2022-10-11T00:21:15.029Z,2.80
2022-10-11T00:23:42.599Z,2.75
2022-10-11T00:26:11.556Z,2.80
2022-10-11T00:28:39.139Z,2.53
2022-10-11T00:31:13.084Z,2.25
2022-10-11T00:33:39.752Z,2.40
2022-10-11T00:36:07.879Z,2.25
2022-10-11T00:41:01.445Z,2.20
2022-10-11T00:43:30.027Z,2.10
2022-10-11T00:48:44.566Z,2.00
2022-10-11T00:51:34.821Z,2.20
2022-10-11T00:54:02.708Z,2.25
2022-10-11T00:56:39.899Z,2.53
2022-10-11T00:59:16.293Z,2.60
2022-10-11T01:01:43.104Z,2.47
2022-10-11T01:04:09.836Z,3.10
2022-10-11T01:06:36.428Z,2.85
2022-10-11T01:09:04.285Z,3.00
2022-10-11T01:11:31.380Z,3.10
2022-10-11T01:14:06.879Z,2.70
2022-10-11T01:16:52.268Z,2.70
2022-10-11T01:19:30.514Z,2.50
2022-10-11T01:22:21.446Z,2.15
2022-10-11T01:25:15.884Z,2.20
2022-10-11T01:27:54.348Z,2.33
2022-10-11T01:30:25.316Z,2.03
2022-10-11T01:33:13.028Z,2.22
2022-10-11T01:35:57.794Z,2.08
2022-10-11T01:38:34.577Z,2.40
2022-10-11T01:41:33.748Z,2.20
2022-10-11T01:44:02.343Z,2.10
2022-10-11T01:49:01.735Z,2.33
2022-10-11T01:51:33.023Z,2.08
2022-10-11T01:54:11.783Z,2.30
2022-10-11T01:56:57.160Z,1.88
2022-10-11T01:59:23.560Z,2.05
2022-10-11T02:02:02.042Z,2.20
2022-10-11T02:04:47.728Z,2.03
2022-10-11T02:07:28.464Z,2.20
2022-10-11T02:10:15.224Z,2.13
2022-10-11T02:12:55.135Z,2.10
2022-10-11T02:15:23.511Z,2.05
2022-10-11T02:17:56.146Z,2.35
2022-10-11T02:20:26.234Z,2.65
2022-10-11T02:22:59.737Z,2.22
2022-10-11T02:25:29.993Z,2.05
2022-10-11T02:27:59.963Z,2.42
2022-10-11T02:30:26.637Z,2.03
2022-10-11T02:32:56.099Z,2.38
2022-10-11T02:35:27.296Z,2.30
2022-10-11T02:38:01.703Z,2.20
2022-10-11T02:40:37.710Z,1.90
2022-10-11T02:43:17.843Z,2.10
2022-10-11T02:45:50.055Z,2.28
2022-10-11T02:48:16.991Z,2.03
2022-10-11T02:50:43.868Z,2.10
2022-10-11T02:53:10.393Z,2.35
2022-10-11T02:55:37.456Z,1.92
2022-10-11T02:58:03.939Z,2.03
2022-10-11T03:00:30.882Z,1.95
2022-10-11T03:02:57.500Z,2.00
2022-10-11T03:05:24.027Z,2.03
2022-10-11T03:07:50.540Z,1.95
2022-10-11T03:10:17.110Z,1.88
2022-10-11T03:12:43.577Z,2.20
2022-10-11T03:15:10.501Z,1.90
2022-10-11T03:17:37.560Z,2.05
2022-10-11T03:20:05.892Z,2.38
2022-10-11T03:22:32.604Z,1.80
2022-10-11T03:25:03.630Z,2.03
2022-10-11T03:27:31.436Z,2.30
2022-10-11T03:29:57.980Z,2.13
2022-10-11T03:32:24.684Z,2.10
2022-10-11T03:34:51.204Z,2.17
2022-10-11T03:37:18.295Z,1.70
2022-10-11T03:39:45.785Z,2.00
2022-10-11T03:42:12.885Z,1.98
2022-10-11T03:44:39.458Z,2.15
2022-10-11T03:47:06.142Z,1.80
2022-10-11T03:49:32.660Z,1.98
2022-10-11T03:51:59.306Z,1.70
2022-10-11T03:54:26.094Z,1.80
2022-10-11T03:56:52.918Z,1.73
2022-10-11T03:59:19.441Z,1.73
2022-10-11T04:01:45.884Z,1.48
2022-10-11T04:04:12.493Z,1.70
2022-10-11T04:06:39.064Z,1.70
2022-10-11T04:09:05.549Z,1.70
2022-10-11T04:11:32.767Z,1.60
2022-10-11T04:13:59.330Z,1.60
2022-10-11T04:16:25.960Z,1.52
2022-10-11T04:18:52.505Z,1.52
2022-10-11T04:21:18.952Z,1.67
2022-10-11T04:23:45.456Z,1.60
2022-10-11T04:26:11.946Z,1.90
2022-10-11T04:28:38.530Z,1.60
2022-10-11T04:31:06.627Z,1.60
2022-10-11T04:33:33.200Z,1.80
2022-10-11T04:35:59.811Z,1.50
2022-10-11T04:38:26.368Z,1.60
2022-10-11T04:40:52.946Z,1.60
2022-10-11T04:43:19.509Z,1.67
2022-10-11T04:45:46.154Z,1.45
2022-10-11T04:48:13.988Z,1.80
2022-10-11T04:50:40.533Z,1.70
2022-10-11T04:53:07.044Z,2.08
2022-10-11T04:55:33.533Z,2.00
2022-10-11T04:58:00.073Z,2.20
2022-10-11T05:00:27.432Z,1.85
2022-10-11T05:02:54.134Z,1.85
2022-10-11T05:05:20.772Z,2.10
2022-10-11T05:07:47.234Z,1.80
2022-10-11T05:10:13.821Z,2.20
2022-10-11T05:12:40.458Z,1.92
2022-10-11T05:15:07.788Z,2.10
2022-10-11T05:17:34.340Z,2.30
2022-10-11T05:20:00.952Z,2.35
2022-10-11T05:22:27.565Z,2.47
2022-10-11T05:24:54.045Z,1.98
2022-10-11T05:27:20.600Z,2.20
2022-10-11T05:29:47.075Z,2.25
2022-10-11T05:32:13.549Z,2.10
2022-10-11T05:34:40.011Z,2.20
2022-10-11T05:37:06.526Z,2.03
2022-10-11T05:39:32.982Z,2.40
2022-10-11T05:41:59.503Z,2.70
2022-10-11T05:44:26.069Z,2.17
2022-10-11T05:46:52.660Z,1.85
2022-10-11T05:49:19.115Z,1.70
2022-10-11T05:51:45.620Z,1.85
2022-10-11T05:54:12.046Z,1.83
2022-10-11T05:56:38.545Z,1.60
2022-10-11T05:59:06.317Z,1.80
2022-10-11T06:01:32.891Z,2.67
2022-10-11T06:03:59.445Z,2.83
2022-10-11T06:06:26.029Z,3.80
2022-10-11T06:08:52.491Z,4.57
2022-10-11T06:11:27.452Z,4.25
2022-10-11T06:13:54.981Z,4.93
2022-10-11T06:16:21.482Z,3.47
2022-10-11T06:18:47.991Z,3.58
2022-10-11T06:21:15.495Z,3.10
2022-10-11T06:23:41.956Z,3.20
2022-10-11T06:26:09.779Z,3.20
2022-10-11T06:28:37.189Z,2.80
2022-10-11T06:31:06.185Z,2.72
2022-10-11T06:33:33.791Z,2.72
2022-10-11T06:36:03.643Z,2.50
2022-10-11T06:38:30.509Z,2.78
2022-10-11T06:40:56.994Z,2.58
2022-10-11T06:43:23.786Z,2.83
2022-10-11T06:45:50.335Z,3.03
2022-10-11T06:48:16.840Z,3.10
2022-10-11T06:50:59.126Z,3.35
2022-10-11T06:53:27.158Z,2.90
2022-10-11T06:55:53.652Z,3.15
2022-10-11T06:58:20.075Z,3.08
2022-10-11T07:00:46.650Z,3.22
2022-10-11T07:03:13.189Z,3.08
2022-10-11T07:05:39.689Z,3.17
2022-10-11T07:08:06.188Z,3.28
2022-10-11T07:10:32.661Z,2.85
2022-10-11T07:12:59.135Z,3.20
2022-10-11T07:15:25.637Z,3.10
2022-10-11T07:17:52.140Z,3.47
2022-10-11T07:20:18.668Z,3.40
2022-10-11T07:22:45.129Z,3.10
2022-10-11T07:25:11.619Z,3.15
2022-10-11T07:27:38.097Z,3.40
2022-10-11T07:30:05.092Z,3.60
2022-10-11T07:32:31.527Z,3.30
2022-10-11T07:34:58.066Z,3.33
2022-10-11T07:37:24.498Z,3.58
2022-10-11T07:39:50.989Z,3.60
2022-10-11T07:42:17.500Z,3.33
2022-10-11T07:44:43.947Z,3.35
2022-10-11T07:47:11.417Z,3.10
2022-10-11T07:49:38.087Z,3.67
2022-10-11T07:52:04.865Z,3.50
2022-10-11T07:54:31.742Z,3.38
2022-10-11T07:56:58.330Z,3.58
2022-10-11T07:59:24.804Z,3.30
2022-10-11T08:01:51.315Z,3.45
2022-10-11T08:04:17.825Z,3.38
2022-10-11T08:06:44.309Z,3.13
2022-10-11T08:09:12.153Z,3.55
2022-10-11T08:11:39.475Z,4.00
2022-10-11T08:14:09.097Z,3.42
2022-10-11T08:16:36.529Z,3.40
2022-10-11T08:19:03.205Z,3.25
2022-10-11T08:21:30.107Z,2.83
2022-10-11T08:23:56.780Z,3.63
2022-10-11T08:26:23.593Z,3.42
2022-10-11T08:28:50.214Z,3.03
2022-10-11T08:31:16.906Z,3.28
2022-10-11T08:33:44.163Z,3.47
2022-10-11T08:36:11.541Z,3.03
2022-10-11T08:38:39.115Z,3.10
2022-10-11T08:41:29.284Z,3.20
2022-10-11T08:43:59.579Z,2.97
2022-10-11T08:46:30.950Z,2.72
2022-10-11T08:48:58.030Z,2.95
2022-10-11T08:51:35.602Z,2.83
2022-10-11T08:54:23.891Z,2.20
2022-10-11T08:56:51.046Z,2.38
2022-10-11T08:59:41.486Z,2.40
2022-10-11T09:02:55.626Z,2.08
2022-10-11T09:05:20.562Z,2.22
2022-10-11T09:08:08.340Z,2.20
2022-10-11T09:10:54.724Z,1.60
2022-10-11T09:13:34.708Z,1.98
2022-10-11T09:16:19.557Z,1.70
2022-10-11T09:18:55.644Z,1.70
2022-10-11T09:21:46.241Z,1.52
2022-10-11T09:24:21.985Z,1.60
2022-10-11T09:26:59.776Z,1.77
2022-10-11T09:29:45.055Z,1.45
2022-10-11T09:32:15.943Z,1.48
2022-10-11T09:34:43.417Z,1.20
2022-10-11T09:37:28.230Z,1.55
2022-10-11T09:40:12.274Z,0.93
2022-10-11T09:42:38.773Z,1.48
2022-10-11T09:45:18.637Z,1.00
2022-10-11T09:47:45.313Z,0.90
2022-10-11T09:50:19.748Z,1.10
2022-10-11T09:56:02.014Z,1.20
2022-10-11T09:58:36.077Z,1.13
2022-10-11T10:01:11.625Z,1.33
2022-10-11T10:03:43.650Z,1.00
2022-10-11T10:06:16.071Z,1.05
2022-10-11T10:08:47.411Z,0.90
2022-10-11T10:11:14.761Z,1.20
2022-10-11T10:13:51.773Z,1.00
2022-10-11T10:16:29.027Z,0.80
2022-10-11T10:19:00.487Z,0.90
2022-10-11T10:21:34.005Z,1.30
2022-10-11T10:24:04.579Z,1.45
2022-10-11T10:26:32.747Z,1.10
2022-10-11T10:28:59.255Z,1.02
2022-10-11T10:31:49.540Z,1.05
2022-10-11T10:34:32.957Z,1.67
2022-10-11T10:37:08.251Z,1.10
2022-10-11T10:39:46.852Z,1.35
2022-10-11T10:42:16.466Z,1.10
2022-10-11T10:44:52.609Z,1.10
2022-10-11T10:47:24.787Z,1.02
2022-10-11T10:50:02.353Z,1.45
2022-10-11T10:52:56.679Z,0.98
2022-10-11T10:55:42.212Z,1.10
2022-10-11T10:58:56.541Z,1.25
2022-10-11T11:01:32.419Z,1.30
2022-10-11T11:04:04.815Z,1.10
2022-10-11T11:06:56.284Z,1.20
2022-10-11T11:09:28.695Z,1.35
2022-10-11T11:12:16.662Z,1.15
2022-10-11T11:14:57.994Z,1.00
2022-10-11T11:17:40.459Z,1.25
2022-10-11T11:20:43.718Z,1.17
2022-10-11T11:23:38.497Z,1.20
2022-10-11T11:26:32.476Z,1.30
2022-10-11T11:29:10.767Z,1.05
2022-10-11T11:31:47.317Z,1.30
2022-10-11T11:34:24.370Z,1.30
2022-10-11T11:37:01.708Z,1.13
2022-10-11T11:39:34.047Z,1.00
2022-10-11T11:42:12.302Z,1.30
2022-10-11T11:44:44.816Z,1.35
2022-10-11T11:47:19.003Z,0.90
2022-10-11T11:52:30.393Z,0.93
2022-10-11T11:55:23.331Z,0.90
2022-10-11T11:58:07.301Z,1.30
2022-10-11T12:00:46.624Z,1.00
2022-10-11T12:03:20.792Z,0.85
2022-10-11T12:06:12.179Z,1.10
2022-10-11T12:08:40.998Z,0.90
2022-10-11T12:11:20.822Z,1.17
2022-10-11T12:13:50.830Z,1.02
2022-10-11T12:16:17.898Z,0.80
2022-10-11T12:18:50.552Z,1.10
2022-10-11T12:21:22.920Z,0.90
2022-10-11T12:23:53.602Z,1.20
2022-10-11T12:26:29.216Z,0.95
2022-10-11T12:29:01.661Z,0.95
2022-10-11T12:31:32.711Z,1.10
2022-10-11T12:34:02.180Z,1.25
2022-10-11T12:36:31.409Z,1.55
2022-10-11T12:39:19.796Z,1.15
2022-10-11T12:41:49.200Z,0.90
2022-10-11T12:44:18.701Z,1.20
2022-10-11T12:46:51.477Z,1.00
2022-10-11T12:49:43.932Z,1.20
2022-10-11T12:54:54.885Z,1.00
2022-10-11T12:57:33.427Z,1.10
2022-10-11T13:00:50.595Z,1.08
2022-10-11T13:03:46.595Z,0.95
2022-10-11T13:06:20.116Z,1.00
2022-10-11T13:08:57.428Z,1.20
2022-10-11T13:11:29.737Z,1.15
2022-10-11T13:14:00.009Z,1.15
2022-10-11T13:16:42.120Z,1.40
2022-10-11T13:19:13.485Z,1.20
2022-10-11T13:21:40.121Z,1.10
2022-10-11T13:24:17.547Z,1.25
2022-10-11T13:26:46.588Z,1.00
2022-10-11T13:29:26.287Z,1.23
2022-10-11T13:31:52.923Z,1.30
2022-10-11T13:34:23.192Z,1.15
2022-10-11T13:36:56.145Z,1.17
2022-10-11T13:39:31.284Z,1.17
2022-10-11T13:41:59.648Z,1.55
2022-10-11T13:46:54.127Z,1.10
2022-10-11T13:49:29.225Z,1.08
2022-10-11T13:52:01.108Z,1.58
2022-10-11T13:55:04.761Z,1.25
2022-10-11T13:57:42.477Z,1.17
2022-10-11T14:00:15.686Z,0.90
2022-10-11T14:03:00.817Z,1.10
2022-10-11T14:05:32.153Z,1.40
2022-10-11T14:08:01.879Z,1.00
2022-10-11T14:10:28.810Z,1.40
2022-10-11T14:13:06.643Z,1.02
2022-10-11T14:15:38.043Z,1.35
2022-10-11T14:18:42.312Z,1.17
2022-10-11T14:21:45.843Z,0.95
2022-10-11T14:24:13.178Z,1.10
2022-10-11T14:26:42.660Z,1.00
2022-10-11T14:29:25.225Z,1.20
2022-10-11T14:31:55.973Z,1.00
2022-10-11T14:34:24.263Z,1.13
2022-10-11T14:36:50.900Z,1.30
2022-10-11T14:39:19.908Z,1.25
2022-10-11T14:41:46.562Z,1.10
2022-10-11T14:44:14.178Z,1.10
2022-10-11T14:46:41.348Z,1.30
2022-10-11T14:49:23.113Z,2.05
2022-10-11T14:51:50.375Z,1.40
2022-10-11T14:54:19.097Z,1.30
2022-10-11T14:56:46.464Z,1.40
2022-10-11T14:59:15.671Z,1.17
2022-10-11T15:01:43.000Z,1.30
2022-10-11T15:04:09.584Z,1.25
2022-10-11T15:06:39.684Z,1.25
2022-10-11T15:09:07.510Z,1.27
2022-10-11T15:11:35.117Z,1.60
2022-10-11T15:14:01.634Z,1.10
2022-10-11T15:16:28.146Z,1.20
2022-10-11T15:18:54.581Z,1.20
2022-10-11T15:21:23.445Z,1.30
2022-10-11T15:23:51.086Z,1.10
2022-10-11T15:26:35.743Z,1.38
2022-10-11T15:29:02.682Z,2.00
2022-10-11T15:31:29.242Z,1.42
2022-10-11T15:33:59.457Z,1.30
2022-10-11T15:36:26.205Z,1.70
2022-10-11T15:38:52.689Z,1.60
2022-10-11T15:41:20.081Z,1.52
2022-10-11T15:43:48.502Z,2.40
2022-10-11T15:46:19.596Z,1.88
2022-10-11T15:48:47.185Z,1.30
2022-10-11T15:51:14.017Z,1.30
2022-10-11T15:53:40.745Z,1.33
2022-10-11T15:56:11.951Z,1.88
2022-10-11T15:58:40.823Z,1.83
2022-10-11T16:01:18.836Z,1.40
2022-10-11T16:03:47.325Z,1.80
2022-10-11T16:06:14.222Z,1.60
2022-10-11T16:08:40.983Z,1.27
2022-10-11T16:11:08.880Z,1.73
2022-10-11T16:13:36.623Z,1.70
2022-10-11T16:16:05.562Z,1.20
2022-10-11T16:18:35.588Z,1.52
2022-10-11T16:21:06.441Z,1.65
2022-10-11T16:23:33.144Z,1.13
2022-10-11T16:26:02.050Z,1.75
2022-10-11T16:28:29.186Z,1.92
2022-10-11T16:30:55.927Z,1.83
2022-10-11T16:33:22.697Z,2.00
2022-10-11T16:35:49.236Z,2.80
2022-10-11T16:38:15.849Z,2.60
2022-10-11T16:40:43.043Z,3.38
2022-10-11T16:43:10.409Z,2.35
2022-10-11T16:45:37.141Z,3.42
2022-10-11T16:48:04.261Z,4.05
2022-10-11T16:50:33.311Z,3.78
2022-10-11T16:53:02.039Z,3.72
2022-10-11T16:55:28.541Z,2.90
2022-10-11T16:57:55.073Z,4.07
2022-10-11T17:00:21.751Z,3.72
2022-10-11T17:02:48.373Z,5.85
2022-10-11T17:05:14.959Z,16.42
2022-10-11T17:07:41.465Z,13.77
2022-10-11T17:10:08.528Z,13.65
2022-10-11T17:12:37.202Z,13.93
2022-10-11T17:15:05.039Z,8.82
2022-10-11T17:17:31.558Z,8.32
2022-10-11T17:19:58.161Z,9.20
2022-10-11T17:22:24.779Z,8.30
2022-10-11T17:24:51.291Z,7.57
2022-10-11T17:27:17.721Z,6.82
2022-10-11T17:29:44.199Z,6.97
2022-10-11T17:32:10.782Z,9.00
2022-10-11T17:34:37.199Z,8.70
2022-10-11T17:37:03.773Z,8.73
2022-10-11T17:39:30.819Z,7.68
2022-10-11T17:41:57.305Z,6.30
2022-10-11T17:44:23.881Z,5.55
2022-10-11T17:46:50.488Z,5.60
2022-10-11T17:49:17.044Z,5.13
2022-10-11T17:51:43.739Z,4.43
2022-10-11T17:54:13.319Z,5.35
2022-10-11T17:56:43.050Z,4.60
2022-10-11T17:59:15.914Z,3.60
2022-10-11T18:01:42.474Z,4.22
2022-10-11T18:04:16.335Z,4.30
2022-10-11T18:06:45.075Z,4.15
2022-10-11T18:09:13.068Z,4.40
2022-10-11T18:11:39.674Z,3.65
2022-10-11T18:14:06.176Z,4.22
2022-10-11T18:16:33.300Z,4.80
2022-10-11T18:19:02.791Z,4.63
2022-10-11T18:21:34.716Z,4.90
2022-10-11T18:24:03.520Z,4.68
2022-10-11T18:26:30.910Z,5.30
2022-10-11T18:28:58.628Z,5.28
2022-10-11T18:31:27.933Z,7.68
2022-10-11T18:33:55.151Z,7.30
2022-10-11T18:36:24.688Z,5.50
2022-10-11T18:39:00.983Z,4.93
2022-10-11T18:41:31.673Z,5.00
2022-10-11T18:44:00.905Z,5.60
2022-10-11T18:46:28.160Z,4.88
2022-10-11T18:48:56.317Z,5.13
2022-10-11T18:51:31.628Z,5.30
2022-10-11T18:54:01.021Z,6.75
2022-10-11T18:56:29.658Z,5.30
2022-10-11T18:58:57.638Z,5.30
2022-10-11T19:01:38.008Z,4.53
2022-10-11T19:04:06.220Z,5.18
2022-10-11T19:06:41.192Z,5.10
2022-10-11T19:09:11.788Z,5.47
2022-10-11T19:11:39.129Z,7.28
2022-10-11T19:14:12.257Z,6.05
2022-10-11T19:16:41.325Z,5.82
2022-10-11T19:19:09.525Z,5.82
2022-10-11T19:21:36.017Z,6.75
2022-10-11T19:24:03.552Z,6.80
2022-10-11T19:26:33.735Z,7.05
2022-10-11T19:29:05.220Z,6.75
2022-10-11T19:31:33.079Z,6.43
2022-10-11T19:33:59.906Z,5.97
2022-10-11T19:36:27.499Z,6.70
2022-10-11T19:38:58.090Z,7.82
2022-10-11T19:41:26.265Z,9.07
2022-10-11T19:43:54.041Z,17.02
2022-10-11T19:49:09.158Z,15.63
2022-10-11T19:51:37.337Z,14.80
2022-10-11T19:54:07.003Z,13.07
2022-10-11T19:56:34.435Z,12.73
2022-10-11T19:59:01.493Z,11.15
2022-10-11T20:01:30.943Z,10.98
2022-10-11T20:04:05.969Z,12.27
2022-10-11T20:06:38.044Z,12.23
2022-10-11T20:09:28.082Z,12.05
2022-10-11T20:11:52.283Z,12.88
2022-10-11T20:14:18.972Z,13.23
2022-10-11T20:16:45.422Z,13.60
2022-10-11T20:19:11.913Z,13.30
2022-10-11T20:21:38.613Z,13.13
2022-10-11T20:24:06.862Z,12.50
2022-10-11T20:26:34.336Z,13.43
2022-10-11T20:29:00.879Z,12.43
2022-10-11T20:31:32.890Z,12.68
2022-10-11T20:34:02.348Z,12.05
2022-10-11T20:36:30.326Z,12.70
2022-10-11T20:38:58.246Z,12.65
2022-10-11T20:41:31.641Z,12.73
2022-10-11T20:43:59.768Z,12.43
2022-10-11T20:46:32.297Z,12.27
2022-10-11T20:49:02.230Z,12.30
2022-10-11T20:51:34.284Z,13.05
2022-10-11T20:54:02.169Z,13.15
2022-10-11T20:56:29.793Z,13.35
2022-10-11T20:58:58.262Z,11.60
2022-10-11T21:03:58.576Z,12.02
2022-10-11T21:06:25.740Z,12.60
2022-10-11T21:08:55.209Z,12.07
2022-10-11T21:11:21.824Z,12.95
2022-10-11T21:13:48.339Z,13.07
2022-10-11T21:16:16.347Z,11.88
2022-10-11T21:18:42.855Z,11.95
2022-10-11T21:21:13.939Z,9.63
2022-10-11T21:23:41.245Z,7.63
2022-10-11T21:26:13.296Z,7.75
2022-10-11T21:28:40.692Z,6.47
2022-10-11T21:31:09.632Z,6.38
2022-10-11T21:33:36.949Z,6.30
2022-10-11T21:36:08.201Z,7.20
2022-10-11T21:38:34.964Z,7.60
2022-10-11T21:41:11.447Z,4.32
2022-10-11T21:43:38.454Z,3.72
2022-10-11T21:46:41.613Z,3.45
2022-10-11T21:49:12.522Z,3.58
2022-10-11T21:51:39.826Z,3.88
2022-10-11T21:54:06.367Z,3.72
2022-10-11T21:56:32.880Z,3.88
2022-10-11T21:58:59.403Z,4.80
2022-10-11T22:01:26.018Z,5.28
2022-10-11T22:03:53.879Z,6.68
2022-10-11T22:06:21.431Z,7.15
2022-10-11T22:08:49.983Z,7.18
2022-10-11T22:11:16.672Z,7.43
2022-10-11T22:13:45.026Z,8.18
2022-10-11T22:16:13.257Z,7.97
2022-10-11T22:18:41.355Z,8.60
2022-10-11T22:21:17.657Z,9.82
2022-10-11T22:23:47.024Z,10.25
2022-10-11T22:26:16.342Z,9.45
2022-10-11T22:28:43.174Z,10.57
2022-10-11T22:31:10.237Z,10.63
2022-10-11T22:33:37.043Z,11.30
2022-10-11T22:36:08.791Z,12.00
2022-10-11T22:38:37.164Z,11.27
2022-10-11T22:41:03.724Z,11.93
2022-10-11T22:43:30.161Z,12.05
2022-10-11T22:45:56.632Z,11.88
2022-10-11T22:48:23.232Z,11.93
2022-10-11T22:50:49.907Z,12.10
2022-10-11T22:53:16.396Z,11.55
2022-10-11T22:55:43.036Z,11.48
2022-10-11T22:58:09.799Z,11.68
2022-10-11T23:00:36.445Z,11.30
2022-10-11T23:03:02.968Z,11.30
2022-10-11T23:05:29.478Z,11.38
2022-10-11T23:07:56.049Z,11.38
2022-10-11T23:10:22.607Z,11.70
2022-10-11T23:12:49.064Z,13.13
2022-10-11T23:15:15.599Z,12.07
2022-10-11T23:17:42.434Z,11.57
2022-10-11T23:20:09.587Z,11.68
2022-10-11T23:22:36.075Z,11.00
2022-10-11T23:25:02.715Z,11.48
2022-10-11T23:27:30.095Z,11.50
2022-10-11T23:29:56.687Z,11.02
2022-10-11T23:32:23.889Z,9.55
2022-10-11T23:34:51.486Z,9.25
2022-10-11T23:37:17.995Z,9.55
2022-10-11T23:39:44.445Z,9.13
2022-10-11T23:42:11.251Z,8.85
2022-10-11T23:44:37.707Z,9.10
2022-10-11T23:47:04.168Z,9.32
2022-10-11T23:49:30.732Z,8.85
2022-10-11T23:51:57.312Z,9.30
2022-10-11T23:54:23.777Z,9.10
2022-10-11T23:56:50.244Z,8.80
2022-10-11T23:59:16.792Z,8.02
